Time;durP1;ratioP1;P1;durP2;ratioP2;P2;SDS_P1;SDS_P2;PMS_P1;PMS_P2;Temp;Humidity;BMP_temperature;BMP_pressure;BME280_temperature;BME280_humidity;BME280_pressure;Samples;Min_cycle;Max_cycle;Signal;HPM_P1;HPM_P2
2021/10/20 03:20:04;;;;;;;4.60;4.20;;;13.60;99.90;;;;;;10169821;29;20241;-84
2021/10/20 03:25:10;;;;;;;6.70;4.10;;;13.60;99.90;;;;;;10165515;29;20205;-84
2021/10/20 03:30:18;;;;;;;5.80;5.37;;;13.60;99.90;;;;;;10163398;29;20206;-84
2021/10/20 03:35:25;;;;;;;4.70;4.40;;;13.70;99.90;;;;;;10163093;29;20233;-84
2021/10/20 03:40:29;;;;;;;5.43;4.97;;;13.60;99.90;;;;;;10162653;29;20209;-84
2021/10/20 03:45:31;;;;;;;5.73;4.63;;;13.60;99.90;;;;;;10177737;29;20222;-84
2021/10/20 03:50:35;;;;;;;4.77;4.40;;;13.60;99.90;;;;;;10165831;29;20221;-83
2021/10/20 03:55:37;;;;;;;5.37;4.93;;;13.60;99.90;;;;;;10201422;29;20284;-83
2021/10/20 04:00:39;;;;;;;4.90;4.50;;;13.60;99.90;;;;;;10200828;29;20725;-83
2021/10/20 04:05:43;;;;;;;8.60;5.10;;;13.60;99.90;;;;;;10200310;29;20303;-83
2021/10/20 04:10:45;;;;;;;4.67;4.27;;;13.50;99.90;;;;;;10199038;29;20304;-84
2021/10/20 04:15:47;;;;;;;4.20;3.90;;;13.50;99.90;;;;;;10195304;29;20609;-84
2021/10/20 04:20:51;;;;;;;5.13;4.47;;;13.50;99.90;;;;;;10220252;29;20209;-84
2021/10/20 04:25:53;;;;;;;4.47;4.07;;;13.50;99.90;;;;;;10201955;29;20217;-85
2021/10/20 04:30:55;;;;;;;4.30;4.00;;;13.50;99.90;;;;;;10187772;29;20837;-85
2021/10/20 04:36:00;;;;;;;4.40;4.10;;;13.50;99.90;;;;;;10216955;28;20219;-84
2021/10/20 04:41:03;;;;;;;4.50;4.20;;;13.50;99.90;;;;;;10238209;29;20197;-84
2021/10/20 04:46:05;;;;;;;3.77;3.53;;;13.50;99.90;;;;;;10236522;28;20217;-85
2021/10/20 04:51:09;;;;;;;4.70;4.40;;;13.40;99.90;;;;;;10213410;29;20652;-83
2021/10/20 04:56:11;;;;;;;5.40;3.90;;;13.40;99.90;;;;;;10197646;29;20247;-84
2021/10/20 05:01:13;;;;;;;4.83;4.33;;;13.30;99.90;;;;;;10199811;29;20244;-83
2021/10/20 05:06:18;;;;;;;6.10;4.10;;;13.20;99.90;;;;;;10222086;28;20748;-85
2021/10/20 05:11:20;;;;;;;4.30;4.00;;;13.20;99.90;;;;;;10220895;28;20208;-85
2021/10/20 05:16:22;;;;;;;4.83;4.30;;;13.10;99.90;;;;;;10220683;28;20287;-85
2021/10/20 05:21:26;;;;;;;4.90;4.17;;;13.00;99.90;;;;;;10208979;29;20221;-85
2021/10/20 05:26:28;;;;;;;4.07;3.77;;;13.00;99.90;;;;;;10198291;29;20252;-85
2021/10/20 05:31:30;;;;;;;4.30;3.90;;;13.00;99.90;;;;;;10235692;29;20207;-85
2021/10/20 05:36:34;;;;;;;4.70;4.20;;;13.00;99.90;;;;;;10236157;28;20233;-85
2021/10/20 05:41:36;;;;;;;6.47;5.23;;;13.00;99.90;;;;;;10220832;29;20205;-85
2021/10/20 05:46:38;;;;;;;5.40;5.00;;;13.00;99.90;;;;;;10220469;28;20681;-85
2021/10/20 05:51:42;;;;;;;6.70;5.03;;;13.00;99.90;;;;;;10207468;29;20770;-85
2021/10/20 05:56:44;;;;;;;5.97;5.47;;;12.90;99.90;;;;;;10186444;29;20267;-85
2021/10/20 06:01:46;;;;;;;56.47;33.30;;;12.90;99.90;;;;;;10219812;28;20198;-85
2021/10/20 06:06:50;;;;;;;39.03;25.27;;;12.90;99.90;;;;;;10222200;28;20252;-85
2021/10/20 06:11:53;;;;;;;56.13;35.20;;;12.90;99.90;;;;;;10236931;28;20285;-85
2021/10/20 06:16:56;;;;;;;21.30;16.67;;;12.90;99.90;;;;;;10221191;28;20263;-85
2021/10/20 06:22:04;;;;;;;34.87;26.97;;;12.90;99.90;;;;;;10238910;28;20235;-85
2021/10/20 06:27:06;;;;;;;16.87;14.10;;;13.00;99.90;;;;;;10189584;29;20225;-86
2021/10/20 06:32:08;;;;;;;13.23;6.77;;;12.90;99.90;;;;;;10200368;29;20209;-86
2021/10/20 06:37:12;;;;;;;5.10;4.70;;;12.90;99.90;;;;;;10199890;29;20268;-86
2021/10/20 06:42:14;;;;;;;5.30;4.80;;;12.90;99.90;;;;;;10186034;29;20213;-85
2021/10/20 06:47:16;;;;;;;7.00;5.40;;;13.00;99.90;;;;;;10202932;29;20232;-84
2021/10/20 06:52:20;;;;;;;7.30;5.50;;;13.00;99.90;;;;;;10234639;29;20201;-85
2021/10/20 06:57:22;;;;;;;5.17;4.67;;;13.00;99.90;;;;;;10219323;28;20641;-85
2021/10/20 07:02:25;;;;;;;4.03;3.73;;;13.10;99.90;;;;;;10218417;28;20201;-85
2021/10/20 07:07:32;;;;;;;4.90;4.50;;;13.10;99.90;;;;;;10232057;28;20327;-85
2021/10/20 07:12:41;;;;;;;4.73;4.33;;;13.10;99.90;;;;;;10222660;29;20216;-85
2021/10/20 07:17:56;;;;;;;7.13;4.90;;;13.20;99.90;;;;;;10233050;28;20225;-86
2021/10/20 07:23:30;;;;;;;5.20;4.70;;;13.40;99.90;;;;;;10219723;28;20215;-85
2021/10/20 07:28:48;;;;;;;8.30;4.60;;;13.40;99.90;;;;;;10216618;28;20228;-84
2021/10/20 07:33:54;;;;;;;5.47;4.97;;;13.50;99.90;;;;;;10199449;28;20221;-85
2021/10/20 07:39:16;;;;;;;5.10;4.67;;;13.60;99.90;;;;;;10197242;28;20220;-85
2021/10/20 07:44:26;;;;;;;5.93;5.43;;;13.70;99.90;;;;;;10196712;29;20196;-85
2021/10/20 07:49:38;;;;;;;5.43;5.03;;;13.90;99.90;;;;;;10182841;29;20222;-87
2021/10/20 08:00:10;;;;;;;5.10;4.70;;;14.00;99.90;;;;;;10180235;29;20219;-85
2021/10/20 08:05:17;;;;;;;6.67;4.60;;;14.10;99.90;;;;;;10165562;29;20733;-84
2021/10/20 08:10:26;;;;;;;4.50;4.20;;;14.20;99.90;;;;;;10168511;29;20202;-84
2021/10/20 08:15:33;;;;;;;5.00;4.13;;;14.40;99.90;;;;;;10202579;29;20644;-85
2021/10/20 08:20:47;;;;;;;4.17;3.80;;;14.60;99.90;;;;;;10181275;29;20816;-85
2021/10/20 08:31:43;;;;;;;4.03;3.63;;;15.00;99.90;;;;;;10201735;29;20201;-84
2021/10/20 08:36:48;;;;;;;6.90;4.10;;;15.30;99.90;;;;;;10215882;29;20287;-85
2021/10/20 08:41:55;;;;;;;4.13;3.67;;;15.50;99.90;;;;;;10214808;29;20231;-85
2021/10/20 08:52:58;;;;;;;3.70;3.37;;;15.90;99.90;;;;;;10203949;29;20205;-86
2021/10/20 08:58:39;;;;;;;3.53;3.23;;;16.20;99.90;;;;;;10226185;28;20231;-84
2021/10/20 09:03:44;;;;;;;4.50;3.13;;;16.40;99.90;;;;;;10231690;29;20204;-86
2021/10/20 09:09:04;;;;;;;4.33;4.03;;;16.60;99.90;;;;;;10222534;28;20304;-85
2021/10/20 09:15:58;;;;;;;3.70;3.43;;;16.60;99.90;;;;;;10234606;29;20248;-86
2021/10/20 09:28:10;;;;;;;4.67;4.27;;;16.80;99.90;;;;;;10217497;28;20221;-85
2021/10/20 12:42:57;;;;;;;4.63;4.23;;;19.40;99.90;;;;;;9978011;29;20279;-86
2021/10/20 12:48:05;;;;;;;3.97;3.77;;;19.50;99.90;;;;;;10137643;29;20244;-85
2021/10/20 12:53:09;;;;;;;3.80;3.50;;;19.80;99.90;;;;;;10159387;29;20663;-87
2021/10/20 12:58:14;;;;;;;3.53;3.33;;;19.90;99.90;;;;;;10197320;29;20235;-85
2021/10/20 13:03:16;;;;;;;4.20;3.90;;;20.00;99.90;;;;;;10199372;29;20662;-86
2021/10/20 13:08:19;;;;;;;3.60;3.40;;;20.00;99.90;;;;;;10183598;29;20221;-86
2021/10/20 13:13:24;;;;;;;4.10;3.80;;;20.00;99.90;;;;;;10198416;29;20758;-85
2021/10/20 13:18:29;;;;;;;4.20;3.80;;;19.80;99.90;;;;;;10196440;29;20225;-86
2021/10/20 13:23:34;;;;;;;4.17;3.77;;;19.70;99.90;;;;;;10181678;29;20213;-86
2021/10/20 13:28:38;;;;;;;3.80;3.23;;;19.50;99.90;;;;;;10176088;29;20237;-87
2021/10/20 13:33:40;;;;;;;3.30;3.00;;;19.50;99.90;;;;;;10158519;29;20313;-85
2021/10/20 13:38:44;;;;;;;4.30;3.90;;;19.40;99.90;;;;;;10170970;29;20225;-86
2021/10/20 13:43:47;;;;;;;3.63;3.30;;;19.50;99.90;;;;;;10197575;29;20204;-86
2021/10/20 13:48:49;;;;;;;3.87;3.57;;;19.60;99.90;;;;;;10198010;29;20257;-86
2021/10/20 13:53:51;;;;;;;3.70;3.50;;;19.60;99.90;;;;;;10183258;29;20252;-86
2021/10/20 13:58:55;;;;;;;3.33;3.03;;;19.60;99.90;;;;;;10181623;29;20248;-86
2021/10/20 14:03:57;;;;;;;3.70;3.40;;;19.70;99.90;;;;;;10199561;29;20232;-86
2021/10/20 14:08:59;;;;;;;3.97;3.70;;;19.80;99.90;;;;;;10189196;29;20249;-86
2021/10/20 14:14:03;;;;;;;4.27;3.87;;;19.90;99.90;;;;;;10185582;29;20702;-86
2021/10/20 14:19:05;;;;;;;4.20;3.90;;;20.00;99.90;;;;;;10212821;29;20221;-86
2021/10/20 14:24:07;;;;;;;3.77;3.47;;;19.90;99.90;;;;;;10180172;29;20607;-86
2021/10/20 14:29:11;;;;;;;4.10;3.90;;;19.90;99.90;;;;;;10183921;29;20316;-86
2021/10/20 14:34:13;;;;;;;4.00;3.80;;;19.80;99.90;;;;;;10211481;29;20284;-86
2021/10/20 14:39:16;;;;;;;4.90;3.80;;;19.70;99.90;;;;;;10185632;29;20233;-87
2021/10/20 14:44:20;;;;;;;4.40;4.10;;;19.70;99.90;;;;;;10175987;29;20225;-86
2021/10/20 14:49:22;;;;;;;4.43;3.80;;;19.70;99.90;;;;;;10178116;29;20300;-86
2021/10/20 14:54:25;;;;;;;4.27;3.93;;;19.60;99.90;;;;;;10186124;29;20213;-85
2021/10/20 14:59:28;;;;;;;3.50;3.30;;;19.60;99.90;;;;;;10237519;29;20213;-86
2021/10/20 15:04:30;;;;;;;3.77;3.47;;;19.60;99.90;;;;;;10235208;28;20247;-86
2021/10/20 15:09:33;;;;;;;3.40;3.03;;;19.60;99.90;;;;;;10220999;29;20251;-86
2021/10/20 15:14:37;;;;;;;3.93;3.63;;;19.60;99.90;;;;;;10192358;29;20217;-86
2021/10/20 15:19:49;;;;;;;3.10;2.90;;;19.60;99.90;;;;;;10186546;29;20593;-86
2021/10/20 15:24:51;;;;;;;4.20;3.87;;;19.60;99.90;;;;;;10222657;29;20208;-86
2021/10/20 15:29:55;;;;;;;4.57;4.17;;;19.60;99.90;;;;;;10210444;29;20275;-85
2021/10/20 15:34:58;;;;;;;4.47;4.13;;;19.60;99.90;;;;;;10200724;28;20209;-86
2021/10/20 15:40:00;;;;;;;5.60;3.70;;;19.60;99.90;;;;;;10202931;29;20209;-86
2021/10/20 15:45:04;;;;;;;4.27;3.97;;;19.50;99.90;;;;;;10185442;29;20197;-86
2021/10/20 15:50:07;;;;;;;4.70;4.30;;;19.40;99.90;;;;;;10204025;29;20638;-86
2021/10/20 15:55:10;;;;;;;4.27;4.00;;;19.40;99.90;;;;;;10210558;29;20221;-86
2021/10/20 16:00:14;;;;;;;4.07;3.77;;;19.40;99.90;;;;;;10230542;29;20204;-87
2021/10/20 16:05:16;;;;;;;5.00;4.60;;;19.30;99.90;;;;;;10257262;28;20275;-86
2021/10/20 16:10:19;;;;;;;4.93;4.53;;;19.30;99.90;;;;;;10245190;29;20204;-86
2021/10/20 16:15:24;;;;;;;5.00;4.60;;;19.30;99.90;;;;;;10224544;28;20232;-86
2021/10/20 16:20:26;;;;;;;10.20;9.30;;;19.30;99.90;;;;;;10234731;29;20205;-85
2021/10/20 16:25:28;;;;;;;5.17;4.70;;;19.20;99.90;;;;;;10212281;29;20256;-85
2021/10/20 16:30:32;;;;;;;5.40;4.90;;;19.20;99.90;;;;;;10200922;29;20209;-85
2021/10/20 16:35:35;;;;;;;4.80;4.50;;;19.10;99.90;;;;;;10217709;29;20227;-85
2021/10/20 16:40:37;;;;;;;4.83;4.43;;;19.10;99.90;;;;;;10188335;29;20203;-86
2021/10/20 16:45:41;;;;;;;6.97;4.30;;;19.10;99.90;;;;;;10197735;29;20280;-87
2021/10/20 16:50:45;;;;;;;4.40;4.13;;;19.00;99.90;;;;;;10200309;29;20288;-86
2021/10/20 16:55:48;;;;;;;5.40;5.00;;;19.00;99.90;;;;;;10186819;29;20309;-87
2021/10/20 17:00:52;;;;;;;4.70;4.40;;;19.00;99.90;;;;;;10200958;29;20355;-86
2021/10/20 17:05:54;;;;;;;4.87;4.57;;;19.00;99.90;;;;;;10208366;29;20332;-85
2021/10/20 17:10:57;;;;;;;5.17;4.80;;;19.00;99.90;;;;;;10207174;29;20223;-86
2021/10/20 17:16:00;;;;;;;4.90;4.37;;;19.00;99.90;;;;;;10203812;29;20661;-87
2021/10/20 17:21:03;;;;;;;6.37;4.70;;;18.80;99.90;;;;;;10219755;29;20272;-85
2021/10/20 17:26:05;;;;;;;5.10;4.63;;;18.80;99.90;;;;;;10210586;29;20228;-87
2021/10/20 17:31:14;;;;;;;4.40;4.10;;;18.70;99.90;;;;;;10211565;29;20216;-88
2021/10/20 17:36:18;;;;;;;4.57;4.27;;;18.70;99.90;;;;;;10188158;29;20229;-86
2021/10/20 17:41:21;;;;;;;4.70;4.40;;;18.60;99.90;;;;;;10191718;29;20197;-86
2021/10/20 17:46:25;;;;;;;6.50;6.00;;;18.60;99.90;;;;;;10185183;29;20248;-86
2021/10/20 17:51:28;;;;;;;6.23;5.60;;;18.50;99.90;;;;;;10185724;29;20260;-86
2021/10/20 17:56:30;;;;;;;5.40;5.00;;;18.50;99.90;;;;;;10185105;29;20233;-86
2021/10/20 18:01:33;;;;;;;6.80;6.30;;;18.50;99.90;;;;;;10200393;29;20193;-86
2021/10/20 18:06:37;;;;;;;6.97;6.40;;;18.40;99.90;;;;;;10199164;29;20202;-86
2021/10/20 18:11:39;;;;;;;5.83;5.43;;;18.30;99.90;;;;;;10200037;29;20216;-87
2021/10/20 18:16:43;;;;;;;6.27;5.87;;;18.30;99.90;;;;;;10183180;29;20661;-86
2021/10/20 18:21:46;;;;;;;5.90;5.40;;;18.20;99.90;;;;;;10184873;29;20233;-86
2021/10/20 18:26:48;;;;;;;5.37;5.00;;;18.10;99.90;;;;;;10201485;29;20229;-86
2021/10/20 18:31:51;;;;;;;5.20;4.90;;;18.10;99.90;;;;;;10182545;29;20205;-85
2021/10/20 18:36:54;;;;;;;5.73;4.93;;;18.00;99.90;;;;;;10183697;29;20677;-86
2021/10/20 18:41:56;;;;;;;10.20;5.17;;;17.90;99.90;;;;;;10183564;29;20670;-87
2021/10/20 18:47:05;;;;;;;4.60;4.20;;;17.90;99.90;;;;;;10199418;29;20206;-87
2021/10/20 18:52:11;;;;;;;4.20;3.90;;;17.90;99.90;;;;;;10200523;29;20209;-87
2021/10/20 18:57:13;;;;;;;5.70;5.30;;;17.90;99.90;;;;;;10189126;29;20577;-86
2021/10/20 19:02:17;;;;;;;5.97;5.47;;;17.90;99.90;;;;;;10176384;29;20221;-86
2021/10/20 19:07:20;;;;;;;5.40;5.10;;;17.90;99.90;;;;;;10145760;29;20244;-86
2021/10/20 19:12:22;;;;;;;5.47;5.03;;;17.80;99.90;;;;;;10178550;29;20605;-87
2021/10/20 19:17:26;;;;;;;6.23;5.73;;;17.70;99.90;;;;;;10146428;29;20332;-86
2021/10/20 19:22:31;;;;;;;6.07;5.30;;;17.70;99.90;;;;;;10144239;29;20285;-87
2021/10/20 19:27:33;;;;;;;6.63;6.03;;;17.70;99.90;;;;;;10182119;29;20209;-87
2021/10/20 19:32:39;;;;;;;4.83;4.53;;;17.70;99.90;;;;;;10171213;29;20265;-86
2021/10/20 19:37:45;;;;;;;5.80;5.50;;;17.70;99.90;;;;;;10201882;23;20264;-86
2021/10/20 19:42:50;;;;;;;5.77;5.37;;;17.70;99.90;;;;;;10198254;29;20208;-86
2021/10/20 19:54:22;;;;;;;5.60;5.20;;;17.70;99.90;;;;;;10207669;29;20231;-86
2021/10/20 19:59:26;;;;;;;5.90;5.50;;;17.70;99.90;;;;;;10189622;29;20708;-86
2021/10/20 20:04:33;;;;;;;5.87;5.47;;;17.70;99.90;;;;;;10189902;29;20205;-87
2021/10/20 20:09:36;;;;;;;6.60;6.10;;;17.70;99.90;;;;;;10190981;29;20225;-86
2021/10/20 20:14:39;;;;;;;5.83;5.43;;;17.60;99.90;;;;;;10189949;29;20620;-87
2021/10/20 20:19:47;;;;;;;5.63;5.23;;;17.70;99.90;;;;;;10203194;29;20236;-87
2021/10/20 20:24:50;;;;;;;6.17;5.60;;;17.70;99.90;;;;;;10187892;29;20636;-87
2021/10/20 20:29:54;;;;;;;6.00;5.50;;;17.70;99.90;;;;;;10187977;29;20233;-87
2021/10/20 20:35:00;;;;;;;5.87;5.37;;;17.70;99.90;;;;;;10203539;29;20304;-85
2021/10/20 20:40:07;;;;;;;5.60;5.27;;;17.70;99.90;;;;;;10204806;29;20216;-86
2021/10/20 20:45:11;;;;;;;6.70;6.20;;;17.60;99.90;;;;;;10201698;29;20280;-86
2021/10/20 20:50:18;;;;;;;5.90;5.50;;;17.60;99.90;;;;;;10219828;29;20289;-86
2021/10/20 20:55:26;;;;;;;5.70;5.30;;;17.60;99.90;;;;;;10200804;29;20324;-85
2021/10/20 21:00:29;;;;;;;5.80;5.40;;;17.60;99.90;;;;;;10200710;29;20280;-87
2021/10/20 21:32:10;;;;;;;5.97;5.57;;;17.40;99.90;;;;;;10155938;29;20663;-85
2021/10/20 21:37:23;;;;;;;6.33;5.80;;;17.40;99.90;;;;;;10125951;29;20328;-86
2021/10/20 22:15:55;;;;;;;8.77;6.27;;;17.30;99.90;;;;;;10088753;29;20236;-86
2021/10/20 22:20:58;;;;;;;9.87;6.90;;;17.20;99.90;;;;;;10156025;29;20246;-86
2021/10/20 22:26:00;;;;;;;7.70;7.10;;;17.10;99.90;;;;;;10191222;29;20667;-86
2021/10/20 22:31:04;;;;;;;8.00;7.40;;;17.00;99.90;;;;;;10209288;29;20709;-87
2021/10/20 22:36:06;;;;;;;9.20;8.30;;;16.90;99.90;;;;;;10197223;29;20232;-86
2021/10/20 22:41:09;;;;;;;9.13;8.40;;;16.80;99.90;;;;;;10188239;29;20209;-86
2021/10/20 22:46:22;;;;;;;9.10;8.30;;;16.70;99.90;;;;;;10195957;23;20592;-84
2021/10/20 22:51:25;;;;;;;9.20;8.50;;;16.70;99.90;;;;;;10187791;29;20213;-84
2021/10/20 22:56:27;;;;;;;9.60;8.70;;;16.60;99.90;;;;;;10178386;29;20236;-83
2021/10/20 23:01:32;;;;;;;9.00;8.40;;;16.50;99.90;;;;;;10177015;29;20576;-83
2021/10/20 23:06:35;;;;;;;9.33;8.43;;;16.40;99.90;;;;;;10194865;29;20233;-84
2021/10/20 23:11:37;;;;;;;8.60;7.97;;;16.40;99.90;;;;;;10205070;29;20224;-84
2021/10/20 23:16:41;;;;;;;8.80;8.10;;;16.40;99.90;;;;;;10171362;29;20237;-84
2021/10/20 23:21:43;;;;;;;9.73;8.83;;;16.40;99.90;;;;;;10157536;29;20253;-85
2021/10/20 23:26:45;;;;;;;10.47;9.77;;;16.30;99.90;;;;;;10183907;29;20226;-84
2021/10/20 23:31:55;;;;;;;10.40;9.70;;;16.40;99.90;;;;;;10165292;29;20217;-83
2021/10/20 23:36:58;;;;;;;10.47;9.57;;;16.30;99.90;;;;;;10166491;29;20245;-84
2021/10/20 23:42:00;;;;;;;10.60;9.80;;;16.30;99.90;;;;;;10182419;29;20281;-84
2021/10/20 23:47:05;;;;;;;12.83;11.80;;;16.30;99.90;;;;;;10183071;29;20265;-84
2021/10/20 23:52:07;;;;;;;12.70;11.70;;;16.30;99.90;;;;;;10165175;29;20225;-84
2021/10/20 23:57:09;;;;;;;14.70;13.57;;;16.20;99.90;;;;;;10209071;29;20308;-84
